Time;durP1;ratioP1;P1;durP2;ratioP2;P2;SDS_P1;SDS_P2;PMS_P1;PMS_P2;Temp;Humidity;BMP_temperature;BMP_pressure;BME280_temperature;BME280_humidity;BME280_pressure;Samples;Min_cycle;Max_cycle;Signal;HPM_P1;HPM_P2
2024/04/16 00:00:36;;;;;;;60.80;38.10;;;;;;;9.78;100.00;97314.03;105517;1260;67049;-73
2024/04/16 00:03:22;;;;;;;65.20;42.10;;;;;;;9.77;100.00;97327.61;105469;1261;60404;-76
2024/04/16 00:05:49;;;;;;;64.50;41.70;;;;;;;9.77;100.00;97326.38;105479;1257;65829;-74
2024/04/16 00:08:15;;;;;;;66.30;41.40;;;;;;;9.78;100.00;97319.94;105468;1258;60497;-74
2024/04/16 00:10:41;;;;;;;68.60;42.40;;;;;;;9.79;100.00;97315.59;105463;1261;60786;-73
2024/04/16 00:13:08;;;;;;;65.00;40.90;;;;;;;9.79;100.00;97313.06;105496;1260;60450;-73
2024/04/16 00:15:34;;;;;;;67.20;42.80;;;;;;;9.79;100.00;97307.41;105476;1260;60479;-72
2024/04/16 00:18:00;;;;;;;71.50;42.30;;;;;;;9.78;100.00;97306.58;105465;1260;60558;-74
2024/04/16 00:20:27;;;;;;;64.70;39.60;;;;;;;9.78;100.00;97316.52;105455;1257;60399;-74
2024/04/16 00:22:53;;;;;;;55.00;33.40;;;;;;;9.82;100.00;97324.72;105502;1257;60547;-76
2024/04/16 00:25:20;;;;;;;49.50;30.80;;;;;;;9.90;100.00;97326.80;105480;1260;60562;-74
2024/04/16 00:27:46;;;;;;;37.90;23.20;;;;;;;9.99;100.00;97321.90;105443;1257;60451;-72
2024/04/16 00:30:12;;;;;;;30.20;18.90;;;;;;;10.10;100.00;97317.33;105459;1260;60434;-73
2024/04/16 00:32:39;;;;;;;28.10;19.10;;;;;;;10.21;100.00;97316.52;105447;1257;60528;-74
2024/04/16 00:35:05;;;;;;;24.50;16.30;;;;;;;10.31;100.00;97318.48;105380;1262;60546;-72
2024/04/16 00:37:32;;;;;;;23.60;16.30;;;;;;;10.39;100.00;97316.44;105459;1260;60527;-74
2024/04/16 00:39:58;;;;;;;20.70;14.10;;;;;;;10.47;100.00;97312.86;105465;1257;60538;-74
2024/04/16 00:42:24;;;;;;;20.00;14.30;;;;;;;10.55;100.00;97306.63;105472;1257;60483;-72
2024/04/16 00:44:51;;;;;;;21.00;13.30;;;;;;;10.61;100.00;97303.97;105468;1260;60527;-74
2024/04/16 00:47:17;;;;;;;20.10;13.50;;;;;;;10.64;100.00;97302.20;105264;1265;60533;-72
2024/04/16 00:49:45;;;;;;;18.40;11.60;;;;;;;10.69;100.00;97301.55;105470;1260;60411;-74
2024/04/16 00:52:12;;;;;;;15.50;11.40;;;;;;;10.74;100.00;97304.44;105466;1256;60464;-74
2024/04/16 00:54:38;;;;;;;14.80;10.90;;;;;;;10.79;100.00;97301.23;105267;1258;60725;-73
2024/04/16 00:57:04;;;;;;;15.30;11.30;;;;;;;10.83;100.00;97297.26;105473;1257;60498;-73
2024/04/16 00:59:32;;;;;;;16.20;10.30;;;;;;;10.87;100.00;97294.08;105450;1258;60468;-74
2024/04/16 01:01:59;;;;;;;13.70;9.30;;;;;;;10.89;100.00;97290.64;105480;1258;64946;-72
2024/04/16 01:04:26;;;;;;;17.10;9.70;;;;;;;10.92;100.00;97279.88;105487;1257;61989;-73
2024/04/16 01:06:52;;;;;;;14.00;9.30;;;;;;;10.93;100.00;97282.92;105360;1258;64680;-72
2024/04/16 01:09:19;;;;;;;11.60;8.20;;;;;;;10.96;100.00;97278.77;105494;1258;60583;-73
2024/04/16 01:11:46;;;;;;;10.40;7.20;;;;;;;10.99;100.00;97272.75;105431;1256;60509;-73
2024/04/16 01:14:13;;;;;;;11.50;7.70;;;;;;;11.03;100.00;97274.05;105513;1260;65773;-74
2024/04/16 01:16:39;;;;;;;7.50;5.50;;;;;;;11.06;100.00;97271.45;105521;1260;62012;-73
2024/04/16 01:19:07;;;;;;;7.90;5.90;;;;;;;11.07;100.00;97263.27;105608;1260;60495;-74
2024/04/16 01:21:34;;;;;;;9.10;6.00;;;;;;;11.10;100.00;97265.67;105548;1260;60474;-75
2024/04/16 01:24:00;;;;;;;5.80;4.00;;;;;;;11.10;100.00;97263.88;105547;1258;60370;-73
2024/04/16 01:26:26;;;;;;;4.60;4.00;;;;;;;11.11;100.00;97261.71;105505;1257;60358;-74
2024/04/16 01:28:53;;;;;;;7.80;4.30;;;;;;;11.12;100.00;97270.64;105510;1260;60442;-76
2024/04/16 01:31:19;;;;;;;4.90;3.60;;;;;;;11.15;100.00;97265.67;105520;1256;60486;-73
2024/04/16 01:33:45;;;;;;;7.00;3.30;;;;;;;11.23;100.00;97260.20;105513;1260;60589;-75
2024/04/16 01:36:12;;;;;;;7.20;3.20;;;;;;;11.31;100.00;97265.95;105496;1256;61250;-74
2024/04/16 01:38:38;;;;;;;4.20;2.30;;;;;;;11.39;100.00;97237.97;105340;1257;60551;-74
2024/04/16 01:41:05;;;;;;;2.90;2.00;;;;;;;11.47;100.00;97245.72;105492;1257;60478;-75
2024/04/16 01:43:31;;;;;;;2.20;1.50;;;;;;;11.55;100.00;97255.85;105498;1256;60554;-73
2024/04/16 01:45:58;;;;;;;3.30;1.40;;;;;;;11.58;100.00;97233.94;105476;1260;60518;-73
2024/04/16 01:48:24;;;;;;;3.20;1.50;;;;;;;11.59;100.00;97232.27;105534;1260;61873;-72
2024/04/16 01:50:50;;;;;;;2.50;1.30;;;;;;;11.58;100.00;97240.59;105525;1256;60761;-72
2024/04/16 01:53:17;;;;;;;2.30;1.60;;;;;;;11.54;100.00;97244.83;105512;1257;60455;-73
2024/04/16 01:55:44;;;;;;;2.70;1.60;;;;;;;11.52;100.00;97248.97;105469;1260;60515;-72
2024/04/16 01:58:10;;;;;;;3.40;2.30;;;;;;;11.49;100.00;97252.35;105547;1257;60627;-72
2024/04/16 02:00:36;;;;;;;2.70;1.20;;;;;;;11.44;100.00;97256.36;105762;1256;60775;-72
2024/04/16 02:03:03;;;;;;;1.90;1.00;;;;;;;11.38;100.00;97265.20;105982;1257;60414;-72
2024/04/16 02:05:30;;;;;;;3.50;1.50;;;;;;;11.34;100.00;97278.62;105701;1256;60533;-74
2024/04/16 02:07:56;;;;;;;2.30;1.10;;;;;;;11.26;100.00;97290.23;105460;1257;60578;-73
2024/04/16 02:10:22;;;;;;;1.80;1.10;;;;;;;11.16;100.00;97307.55;105432;1255;60470;-72
2024/04/16 02:12:49;;;;;;;1.30;1.00;;;;;;;11.07;100.00;97311.45;105482;1260;60448;-73
2024/04/16 02:15:15;;;;;;;1.80;1.00;;;;;;;10.99;100.00;97317.38;105480;1256;60486;-72
2024/04/16 02:17:42;;;;;;;2.40;1.00;;;;;;;10.91;100.00;97320.12;105479;1259;60362;-74
2024/04/16 02:20:30;;;;;;;4.70;1.00;;;;;;;10.85;100.00;97324.46;105509;1257;60573;-73
2024/04/16 02:22:57;;;;;;;0.60;0.60;;;;;;;10.80;100.00;97320.86;105440;1257;60437;-72
2024/04/16 02:25:23;;;;;;;2.20;1.10;;;;;;;10.77;100.00;97310.80;105457;1258;60567;-73
2024/04/16 02:27:49;;;;;;;1.20;0.80;;;;;;;10.73;100.00;97305.31;105488;1256;60491;-74
2024/04/16 02:30:16;;;;;;;3.50;0.80;;;;;;;10.70;100.00;97316.36;105460;1260;60512;-74
2024/04/16 02:32:42;;;;;;;1.00;0.80;;;;;;;10.68;100.00;97320.10;105470;1258;60598;-74
2024/04/16 02:35:08;;;;;;;1.50;0.90;;;;;;;10.66;100.00;97312.91;105462;1255;60655;-74
2024/04/16 02:37:35;;;;;;;2.20;1.00;;;;;;;10.63;100.00;97310.16;105503;1256;60486;-74
2024/04/16 02:40:01;;;;;;;1.90;0.80;;;;;;;10.60;100.00;97307.76;105496;1256;60855;-74
2024/04/16 02:42:27;;;;;;;2.50;1.30;;;;;;;10.58;100.00;97302.50;105489;1260;60487;-73
2024/04/16 02:44:54;;;;;;;2.20;0.90;;;;;;;10.54;100.00;97307.38;105450;1261;60599;-73
2024/04/16 02:47:20;;;;;;;2.30;1.10;;;;;;;10.51;100.00;97315.30;105469;1257;60574;-74
2024/04/16 02:49:46;;;;;;;2.20;0.70;;;;;;;10.50;100.00;97314.18;105454;1256;61169;-73
2024/04/16 02:52:12;;;;;;;5.50;1.00;;;;;;;10.49;100.00;97315.02;105470;1256;60454;-74
2024/04/16 02:54:39;;;;;;;3.10;1.00;;;;;;;10.47;100.00;97305.95;105509;1260;60509;-75
2024/04/16 02:57:05;;;;;;;3.50;1.00;;;;;;;10.46;100.00;97300.54;105503;1255;60513;-73
2024/04/16 02:59:31;;;;;;;2.10;1.30;;;;;;;10.44;100.00;97289.20;105475;1257;60662;-74
2024/04/16 03:01:58;;;;;;;1.40;0.80;;;;;;;10.41;100.00;97282.06;105499;1257;60554;-74
2024/04/16 03:04:24;;;;;;;1.40;0.80;;;;;;;10.37;100.00;97282.98;105515;1257;61053;-75
2024/04/16 03:06:51;;;;;;;3.30;1.00;;;;;;;10.32;100.00;97291.36;105496;1256;60564;-72
2024/04/16 03:09:17;;;;;;;1.80;1.20;;;;;;;10.26;100.00;97291.36;105528;1260;61386;-75
2024/04/16 03:11:43;;;;;;;3.90;1.20;;;;;;;10.23;100.00;97288.96;105499;1260;61453;-75
2024/04/16 03:14:10;;;;;;;2.60;1.20;;;;;;;10.19;100.00;97278.58;105543;1257;61347;-74
2024/04/16 03:16:36;;;;;;;3.30;1.00;;;;;;;10.15;100.00;97270.80;105563;1257;61360;-73
2024/04/16 03:19:03;;;;;;;4.40;1.10;;;;;;;10.10;100.00;97255.55;105484;1258;64260;-74
2024/04/16 03:21:29;;;;;;;3.40;1.10;;;;;;;10.05;100.00;97246.61;105513;1256;61185;-73
2024/04/16 03:23:55;;;;;;;2.40;0.90;;;;;;;10.02;100.00;97255.96;105496;1256;61278;-75
2024/04/16 03:26:22;;;;;;;3.40;1.00;;;;;;;10.00;100.00;97270.19;105506;1256;61367;-74
2024/04/16 03:28:48;;;;;;;3.10;1.00;;;;;;;9.98;100.00;97281.52;105523;1260;61386;-73
2024/04/16 03:31:14;;;;;;;2.60;1.00;;;;;;;9.98;100.00;97284.77;105459;1257;61804;-74
2024/04/16 03:33:41;;;;;;;3.60;1.20;;;;;;;9.97;100.00;97296.75;105446;1260;61459;-74
2024/04/16 03:36:07;;;;;;;3.80;1.00;;;;;;;9.95;100.00;97308.99;105497;1260;61942;-74
2024/04/16 03:38:35;;;;;;;4.80;0.90;;;;;;;9.94;100.00;97316.39;105506;1256;61290;-74
2024/04/16 03:41:01;;;;;;;4.10;1.20;;;;;;;9.89;100.00;97321.38;105470;1256;61287;-73
2024/04/16 03:43:28;;;;;;;4.50;1.20;;;;;;;9.85;100.00;97320.98;105549;1260;61450;-73
2024/04/16 03:45:56;;;;;;;4.70;1.10;;;;;;;9.84;100.00;97327.73;105478;1260;61227;-76
2024/04/16 03:48:24;;;;;;;2.90;1.30;;;;;;;9.82;100.00;97330.05;105531;1256;61212;-75
2024/04/16 03:50:51;;;;;;;2.30;1.30;;;;;;;9.79;100.00;97338.98;105475;1256;64771;-73
2024/04/16 03:53:17;;;;;;;3.70;1.20;;;;;;;9.74;100.00;97352.19;105500;1256;61344;-72
2024/04/16 03:55:44;;;;;;;2.20;1.20;;;;;;;9.68;100.00;97343.83;105470;1260;61342;-73
2024/04/16 03:58:11;;;;;;;7.50;1.50;;;;;;;9.63;100.00;97340.19;105484;1257;61378;-72
2024/04/16 04:03:23;;;;;;;2.60;1.20;;;;;;;9.56;100.00;97334.50;105510;1260;66429;-72
2024/04/16 04:05:49;;;;;;;3.00;1.20;;;;;;;9.54;100.00;97332.34;105548;1260;61339;-73
2024/04/16 04:08:16;;;;;;;3.10;1.30;;;;;;;9.56;100.00;97337.69;105504;1260;61291;-73
2024/04/16 04:10:42;;;;;;;2.90;1.50;;;;;;;9.59;100.00;97340.02;105509;1256;61133;-74
2024/04/16 04:13:08;;;;;;;2.50;0.80;;;;;;;9.65;100.00;97352.80;105584;1256;61309;-73
2024/04/16 04:15:38;;;;;;;5.80;0.90;;;;;;;9.70;100.00;97370.09;105883;1258;61287;-74
2024/04/16 04:18:05;;;;;;;4.20;1.10;;;;;;;9.74;100.00;97384.98;105798;1258;68690;-75
2024/04/16 04:20:32;;;;;;;2.40;0.60;;;;;;;9.79;100.00;97393.11;105529;1256;71724;-74
2024/04/16 04:22:58;;;;;;;2.00;1.10;;;;;;;9.82;100.00;97399.39;105672;1260;61265;-74
2024/04/16 04:25:25;;;;;;;2.50;0.70;;;;;;;9.85;100.00;97395.94;105531;1255;61297;-74
2024/04/16 04:27:51;;;;;;;3.30;0.60;;;;;;;9.87;100.00;97398.88;105439;1260;61312;-74
2024/04/16 04:30:18;;;;;;;2.00;0.60;;;;;;;9.87;100.00;97409.71;105503;1256;61400;-73
2024/04/16 04:32:48;;;;;;;5.00;0.80;;;;;;;9.87;100.00;97426.91;105475;1256;61384;-74
2024/04/16 04:35:15;;;;;;;4.30;1.30;;;;;;;9.88;100.00;97425.73;105493;1257;61249;-73
2024/04/16 04:37:41;;;;;;;2.70;0.80;;;;;;;9.89;100.00;97426.45;105556;1256;61350;-73
2024/04/16 04:40:08;;;;;;;5.10;1.50;;;;;;;9.88;100.00;97428.42;105437;1256;61235;-74
2024/04/16 04:42:34;;;;;;;2.10;1.10;;;;;;;9.87;100.00;97441.31;105473;1256;61379;-76
2024/04/16 04:45:02;;;;;;;2.90;0.90;;;;;;;9.84;100.00;97453.98;105247;1257;61386;-74
2024/04/16 04:47:28;;;;;;;8.40;0.90;;;;;;;9.81;100.00;97455.88;105424;1260;61314;-72
2024/04/16 04:49:54;;;;;;;3.90;1.30;;;;;;;9.78;100.00;97466.95;105454;1258;61127;-73
2024/04/16 04:52:21;;;;;;;4.60;1.00;;;;;;;9.76;100.00;97482.70;105455;1260;61362;-73
2024/04/16 04:54:47;;;;;;;2.80;1.40;;;;;;;9.74;100.00;97496.88;105360;1257;61443;-75
2024/04/16 04:57:14;;;;;;;3.50;1.50;;;;;;;9.73;100.00;97505.67;105427;1256;61302;-73
2024/04/16 04:59:40;;;;;;;3.40;1.30;;;;;;;9.72;100.00;97520.02;105427;1256;61356;-75
2024/04/16 05:02:09;;;;;;;2.00;1.40;;;;;;;9.68;100.00;97521.22;105461;1258;62855;-75
2024/04/16 05:04:36;;;;;;;4.70;1.80;;;;;;;9.63;100.00;97522.17;105388;1256;66535;-72
2024/04/16 05:07:03;;;;;;;4.50;2.00;;;;;;;9.56;100.00;97525.59;105436;1260;61231;-74
2024/04/16 05:09:29;;;;;;;5.00;1.40;;;;;;;9.49;100.00;97524.83;105450;1256;61356;-73
2024/04/16 05:11:55;;;;;;;3.20;1.40;;;;;;;9.39;100.00;97524.72;105438;1260;61238;-73
2024/04/16 05:14:23;;;;;;;8.20;1.70;;;;;;;9.32;100.00;97513.67;105464;1260;61438;-73
2024/04/16 05:16:50;;;;;;;1.90;1.00;;;;;;;9.25;100.00;97501.13;109174;1255;67451;-72
2024/04/16 05:19:16;;;;;;;6.60;1.60;;;;;;;9.18;100.00;97501.01;109138;1255;58990;-72
2024/04/16 05:21:43;;;;;;;2.80;1.20;;;;;;;9.10;100.00;97514.61;109162;1255;58970;-73
2024/04/16 05:24:11;;;;;;;1.90;1.20;;;;;;;9.06;100.00;97517.34;108929;1256;59008;-73
2024/04/16 05:26:37;;;;;;;2.60;1.00;;;;;;;9.01;100.00;97525.46;109116;1255;58880;-74
2024/04/16 05:29:04;;;;;;;2.10;1.30;;;;;;;8.98;100.00;97525.19;109176;1255;59091;-73
2024/04/16 05:31:30;;;;;;;1.60;1.50;;;;;;;8.97;100.00;97513.77;109161;1255;60174;-73
2024/04/16 05:33:57;;;;;;;5.80;1.50;;;;;;;8.97;100.00;97524.19;109178;1255;59020;-73
2024/04/16 05:36:23;;;;;;;5.20;1.40;;;;;;;8.95;100.00;97527.05;109140;1255;59025;-73
2024/04/16 05:38:50;;;;;;;4.60;1.10;;;;;;;8.92;100.00;97531.02;109209;1255;59807;-74
2024/04/16 05:41:16;;;;;;;5.10;1.40;;;;;;;8.88;100.00;97541.64;109135;1255;58974;-74
2024/04/16 05:43:43;;;;;;;2.60;1.70;;;;;;;8.90;100.00;97540.25;109185;1255;59093;-73
2024/04/16 05:46:10;;;;;;;3.10;1.20;;;;;;;8.96;100.00;97534.25;109179;1255;59333;-72
2024/04/16 05:48:37;;;;;;;2.50;1.30;;;;;;;9.06;100.00;97530.02;109042;1256;59392;-73
2024/04/16 05:51:04;;;;;;;6.30;1.50;;;;;;;9.19;100.00;97533.52;109153;1255;58894;-74
2024/04/16 05:53:30;;;;;;;3.20;1.50;;;;;;;9.32;100.00;97526.45;109134;1255;59368;-74
2024/04/16 05:55:56;;;;;;;3.30;1.60;;;;;;;9.41;100.00;97530.91;109178;1255;59447;-73
2024/04/16 05:58:24;;;;;;;3.80;1.10;;;;;;;9.40;100.00;97527.10;109140;1255;59064;-74
2024/04/16 06:00:50;;;;;;;2.70;1.20;;;;;;;9.31;100.00;97531.83;109106;1255;58941;-75
2024/04/16 06:03:17;;;;;;;2.90;1.20;;;;;;;9.21;100.00;97558.02;109099;1255;59095;-73
2024/04/16 06:05:44;;;;;;;2.40;1.30;;;;;;;9.11;100.00;97582.56;109091;1255;65310;-71
2024/04/16 06:08:10;;;;;;;1.50;1.30;;;;;;;9.02;100.00;97576.42;109109;1256;58919;-70
2024/04/16 06:10:36;;;;;;;1.10;1.10;;;;;;;8.94;100.00;97570.18;109041;1256;59398;-72
2024/04/16 06:13:03;;;;;;;3.80;1.20;;;;;;;8.85;100.00;97563.14;109232;1256;59459;-69
2024/04/16 06:15:29;;;;;;;3.60;1.60;;;;;;;8.77;100.00;97571.41;108846;1257;59035;-74
2024/04/16 06:17:55;;;;;;;3.40;1.20;;;;;;;8.70;100.00;97582.27;109214;1256;59181;-75
2024/04/16 06:20:42;;;;;;;3.20;1.30;;;;;;;8.63;100.00;97580.34;109262;1256;59031;-81
2024/04/16 06:23:09;;;;;;;2.50;1.40;;;;;;;8.55;100.00;97581.66;108887;1259;65120;-78
2024/04/16 06:25:38;;;;;;;3.50;1.00;;;;;;;8.52;100.00;97581.45;108949;1259;59112;-77
2024/04/16 06:28:04;;;;;;;4.50;1.30;;;;;;;8.53;100.00;97594.46;108986;1259;59002;-75
2024/04/16 06:30:30;;;;;;;2.40;1.60;;;;;;;8.59;100.00;97601.38;108969;1259;59281;-76
2024/04/16 06:32:57;;;;;;;1.40;1.30;;;;;;;8.62;100.00;97613.34;108777;1260;59123;-75
2024/04/16 06:35:23;;;;;;;3.30;1.40;;;;;;;8.58;100.00;97636.52;108875;1259;59082;-76
2024/04/16 06:37:49;;;;;;;3.20;1.60;;;;;;;8.54;100.00;97648.14;108927;1259;59231;-75
2024/04/16 06:40:16;;;;;;;3.60;1.70;;;;;;;8.51;100.00;97658.36;108924;1259;59026;-76
2024/04/16 06:42:43;;;;;;;1.70;1.40;;;;;;;8.45;100.00;97657.08;108948;1259;59055;-76
2024/04/16 06:45:10;;;;;;;5.20;1.80;;;;;;;8.43;100.00;97652.27;108901;1259;60093;-76
2024/04/16 06:47:36;;;;;;;4.70;1.50;;;;;;;8.42;100.00;97652.53;108923;1259;65539;-74
2024/04/16 06:50:02;;;;;;;4.20;1.70;;;;;;;8.38;100.00;97646.45;108930;1259;59015;-75
2024/04/16 06:52:32;;;;;;;3.00;1.90;;;;;;;8.37;100.00;97641.02;108932;1259;59084;-75
2024/04/16 06:54:58;;;;;;;4.30;2.10;;;;;;;8.42;100.00;97642.02;109148;1256;66068;-76
2024/04/16 06:57:25;;;;;;;3.20;1.40;;;;;;;8.51;100.00;97644.14;109095;1256;59040;-76
2024/04/16 06:59:53;;;;;;;4.00;1.40;;;;;;;8.62;100.00;97632.30;109110;1256;63892;-75
2024/04/16 07:02:19;;;;;;;2.20;1.20;;;;;;;8.75;100.00;97611.77;109104;1256;58982;-75
2024/04/16 07:04:45;;;;;;;4.40;1.20;;;;;;;8.96;100.00;97582.21;109088;1256;58944;-74
2024/04/16 07:07:12;;;;;;;2.00;1.40;;;;;;;9.21;100.00;97566.15;109110;1256;66028;-77
2024/04/16 07:09:38;;;;;;;3.50;1.50;;;;;;;9.36;100.00;97575.70;109111;1256;59060;-75
2024/04/16 07:12:05;;;;;;;1.50;1.10;;;;;;;9.59;100.00;97589.14;109114;1256;59082;-75
2024/04/16 07:14:31;;;;;;;3.30;1.00;;;;;;;9.87;100.00;97592.74;108926;1256;59377;-76
2024/04/16 07:16:57;;;;;;;2.90;1.30;;;;;;;10.09;100.00;97591.75;109132;1256;59399;-75
2024/04/16 07:19:24;;;;;;;3.00;0.90;;;;;;;10.36;100.00;97578.78;109095;1256;59003;-76
2024/04/16 07:21:50;;;;;;;1.60;0.90;;;;;;;10.50;100.00;97559.79;109070;1256;59033;-75
2024/04/16 07:24:16;;;;;;;3.00;0.90;;;;;;;10.55;100.00;97560.89;109090;1256;59286;-75
2024/04/16 07:26:43;;;;;;;2.00;1.10;;;;;;;10.72;100.00;97578.94;109076;1256;58947;-75
2024/04/16 07:29:09;;;;;;;1.40;1.20;;;;;;;10.84;100.00;97595.63;108878;1256;59251;-74
2024/04/16 07:31:35;;;;;;;3.60;1.40;;;;;;;10.82;100.00;97609.30;109067;1256;59323;-75
2024/04/16 07:34:02;;;;;;;3.20;1.60;;;;;;;10.73;100.00;97611.39;109154;1256;59028;-75
2024/04/16 07:36:28;;;;;;;3.30;1.90;;;;;;;10.62;100.00;97600.99;109096;1256;59087;-75
2024/04/16 07:38:54;;;;;;;2.10;1.20;;;;;;;10.50;100.00;97604.16;109083;1256;59322;-75
2024/04/16 07:41:21;;;;;;;3.40;1.10;;;;;;;10.32;100.00;97617.27;109122;1256;59512;-73
2024/04/16 07:43:47;;;;;;;2.30;1.20;;;;;;;10.12;100.00;97625.94;109105;1256;59323;-75
2024/04/16 07:46:14;;;;;;;2.70;1.00;;;;;;;10.07;100.00;97640.08;109096;1256;59388;-74
2024/04/16 07:48:40;;;;;;;4.10;1.40;;;;;;;10.07;100.00;97642.88;109025;1256;58981;-73
2024/04/16 07:51:06;;;;;;;3.10;0.90;;;;;;;10.18;100.00;97643.58;109127;1256;58923;-74
2024/04/16 07:53:33;;;;;;;2.20;0.90;;;;;;;10.31;100.00;97645.40;109092;1256;59108;-75
2024/04/16 07:55:59;;;;;;;2.60;1.20;;;;;;;10.39;100.00;97654.15;109109;1256;59219;-75
2024/04/16 07:58:25;;;;;;;4.00;1.30;;;;;;;10.40;100.00;97669.30;109149;1256;59308;-75
2024/04/16 08:00:54;;;;;;;1.80;0.80;;;;;;;10.32;100.00;97681.94;109074;1256;59001;-75
2024/04/16 08:03:21;;;;;;;3.00;0.90;;;;;;;10.08;100.00;97686.95;109128;1256;59238;-75
2024/04/16 08:05:47;;;;;;;1.20;0.70;;;;;;;9.85;100.00;97687.52;109156;1256;58988;-76
2024/04/16 08:08:15;;;;;;;2.30;1.10;;;;;;;9.66;100.00;97672.80;109083;1256;59055;-76
2024/04/16 08:10:42;;;;;;;2.50;0.90;;;;;;;9.49;100.00;97658.77;109114;1256;60584;-74
2024/04/16 08:13:08;;;;;;;2.70;1.20;;;;;;;9.42;100.00;97664.35;109103;1256;64345;-75
2024/04/16 08:15:34;;;;;;;2.40;1.10;;;;;;;9.39;100.00;97683.58;109123;1256;58997;-75
2024/04/16 08:18:01;;;;;;;2.30;0.80;;;;;;;9.47;100.00;97687.48;109087;1256;58946;-74
2024/04/16 08:20:27;;;;;;;2.20;0.80;;;;;;;9.54;100.00;97672.23;109140;1256;59123;-75
2024/04/16 08:22:53;;;;;;;3.00;1.10;;;;;;;9.60;100.00;97669.77;109112;1258;58994;-76
2024/04/16 08:25:20;;;;;;;2.40;1.10;;;;;;;9.75;100.00;97667.79;109093;1256;59046;-75
2024/04/16 08:27:46;;;;;;;2.00;1.30;;;;;;;10.04;100.00;97668.34;109085;1256;59254;-75
2024/04/16 08:30:12;;;;;;;3.80;1.10;;;;;;;10.27;100.00;97683.91;109148;1256;58992;-75
2024/04/16 08:32:38;;;;;;;4.70;1.30;;;;;;;10.41;100.00;97701.70;109109;1256;58998;-75
2024/04/16 08:35:10;;;;;;;3.30;0.80;;;;;;;10.47;100.00;97714.71;109114;1256;58931;-75
2024/04/16 08:37:37;;;;;;;1.80;0.90;;;;;;;10.31;100.00;97710.08;109056;1256;63757;-75
2024/04/16 08:40:03;;;;;;;1.20;1.00;;;;;;;10.04;100.00;97713.44;108857;1256;58995;-75
2024/04/16 08:42:30;;;;;;;2.10;0.90;;;;;;;9.79;100.00;97721.59;109166;1256;59135;-75
2024/04/16 08:45:00;;;;;;;2.10;0.70;;;;;;;9.63;100.00;97721.30;109098;1258;66057;-74
2024/04/16 08:47:27;;;;;;;3.20;1.10;;;;;;;9.55;100.00;97725.51;109134;1256;60738;-75
2024/04/16 08:49:55;;;;;;;2.80;0.90;;;;;;;9.56;100.00;97721.55;109101;1256;62760;-75
2024/04/16 08:52:22;;;;;;;2.90;1.10;;;;;;;9.48;100.00;97720.96;109119;1256;59200;-75
2024/04/16 08:54:49;;;;;;;1.20;1.10;;;;;;;9.38;100.00;97720.36;109095;1256;59015;-74
2024/04/16 08:57:17;;;;;;;4.30;3.00;;;;;;;9.48;100.00;97710.66;109125;1256;66010;-75
2024/04/16 08:59:43;;;;;;;7.40;4.50;;;;;;;9.70;100.00;97703.48;109146;1256;59007;-74
2024/04/16 09:02:12;;;;;;;3.20;2.50;;;;;;;9.96;100.00;97702.53;109084;1256;59021;-76
2024/04/16 09:04:40;;;;;;;2.60;1.40;;;;;;;10.21;100.00;97705.36;109114;1256;58970;-75
2024/04/16 09:07:07;;;;;;;1.60;1.00;;;;;;;10.35;100.00;97702.45;109098;1256;58950;-76
2024/04/16 09:09:34;;;;;;;1.20;0.90;;;;;;;10.39;100.00;97708.30;109095;1256;65822;-75
2024/04/16 09:12:00;;;;;;;2.30;1.10;;;;;;;10.43;100.00;97709.06;109120;1256;58953;-75
2024/04/16 09:14:26;;;;;;;3.40;1.50;;;;;;;10.42;100.00;97702.55;109138;1256;59000;-75
2024/04/16 09:16:53;;;;;;;1.40;0.80;;;;;;;10.38;100.00;97697.93;109092;1256;59066;-74
2024/04/16 09:19:23;;;;;;;2.90;1.10;;;;;;;10.30;100.00;97696.13;109124;1256;59101;-75
2024/04/16 09:21:49;;;;;;;2.10;1.00;;;;;;;10.18;100.00;97704.77;109094;1256;65763;-75
2024/04/16 09:24:20;;;;;;;3.90;0.90;;;;;;;10.15;100.00;97716.04;109148;1256;59107;-76
2024/04/16 09:26:46;;;;;;;3.40;0.90;;;;;;;10.19;100.00;97719.41;109437;1253;63770;-75
2024/04/16 09:29:22;;;;;;;2.90;0.90;;;;;;;10.23;100.00;97728.98;109247;1253;59054;-74
2024/04/16 09:31:59;;;;;;;1.30;0.60;;;;;;;10.34;100.00;97725.08;109461;1253;59030;-76
2024/04/16 09:34:26;;;;;;;1.70;1.00;;;;;;;10.46;100.00;97716.91;109400;1253;65951;-76
2024/04/16 09:36:52;;;;;;;2.20;0.90;;;;;;;10.61;100.00;97716.88;109460;1252;59052;-75
2024/04/16 09:39:20;;;;;;;2.20;0.90;;;;;;;10.82;100.00;97711.64;109436;1253;59021;-75
2024/04/16 09:41:48;;;;;;;2.20;0.90;;;;;;;11.09;100.00;97711.90;109247;1253;58954;-73
2024/04/16 09:44:18;;;;;;;1.30;0.70;;;;;;;11.39;100.00;97721.79;109464;1253;59094;-75
2024/04/16 09:46:47;;;;;;;2.10;1.00;;;;;;;11.69;100.00;97713.34;109471;1253;66083;-77
2024/04/16 09:49:14;;;;;;;2.60;0.90;;;;;;;11.93;100.00;97699.23;109490;1253;60244;-75
2024/04/16 09:51:41;;;;;;;1.70;0.80;;;;;;;12.09;100.00;97697.41;109492;1253;64057;-76
2024/04/16 09:54:10;;;;;;;1.90;1.20;;;;;;;12.19;100.00;97694.16;109447;1253;59063;-75
2024/04/16 09:56:37;;;;;;;3.00;1.60;;;;;;;12.23;100.00;97692.52;109287;1253;59032;-75
2024/04/16 09:59:05;;;;;;;2.50;1.10;;;;;;;12.26;100.00;97697.58;109426;1253;65867;-76
2024/04/16 10:01:33;;;;;;;2.10;0.90;;;;;;;12.28;100.00;97716.50;109229;1253;60187;-75
2024/04/16 10:04:01;;;;;;;1.80;0.90;;;;;;;12.28;100.00;97716.46;109410;1253;64203;-74
2024/04/16 10:06:27;;;;;;;1.70;1.10;;;;;;;12.15;100.00;97725.04;109451;1253;59173;-76
2024/04/16 10:08:54;;;;;;;2.50;0.70;;;;;;;11.98;100.00;97735.80;109501;1253;58942;-75
2024/04/16 10:11:22;;;;;;;2.90;0.80;;;;;;;11.86;100.00;97741.94;109485;1252;64481;-75
2024/04/16 10:13:51;;;;;;;2.90;1.30;;;;;;;11.64;100.00;97738.60;109441;1253;60293;-76
2024/04/16 10:16:18;;;;;;;2.60;1.00;;;;;;;11.44;100.00;97735.79;109443;1253;63753;-76
2024/04/16 10:18:54;;;;;;;2.70;1.40;;;;;;;11.33;100.00;97741.61;109421;1253;58880;-75
2024/04/16 10:21:23;;;;;;;1.00;0.80;;;;;;;11.34;100.00;97747.18;109321;1253;59096;-75
2024/04/16 10:24:00;;;;;;;4.50;1.00;;;;;;;11.41;100.00;97747.57;109465;1253;66093;-76
2024/04/16 10:26:26;;;;;;;3.30;1.90;;;;;;;11.50;100.00;97737.60;109453;1253;59916;-75
2024/04/16 10:28:57;;;;;;;1.90;1.70;;;;;;;11.51;100.00;97739.98;109414;1253;63538;-76
2024/04/16 10:31:30;;;;;;;;;;;;;;;11.57;100.00;97740.77;109460;1253;58960;-75
2024/04/16 10:34:03;;;;;;;1.40;0.90;;;;;;;11.69;100.00;97731.73;109463;1253;58955;-75
2024/04/16 10:36:30;;;;;;;1.90;1.00;;;;;;;11.91;100.00;97719.06;109446;1253;64516;-76
2024/04/16 10:38:56;;;;;;;1.70;1.10;;;;;;;12.20;100.00;97703.50;109481;1253;59000;-76
2024/04/16 10:41:27;;;;;;;3.50;1.20;;;;;;;12.48;100.00;97696.27;109482;1253;58993;-75
2024/04/16 10:43:57;;;;;;;1.80;1.00;;;;;;;12.74;100.00;97684.47;109397;1253;58983;-74
2024/04/16 10:46:23;;;;;;;4.20;1.20;;;;;;;13.03;100.00;97679.02;109152;1253;59030;-75
2024/04/16 10:48:50;;;;;;;3.20;0.90;;;;;;;13.11;100.00;97685.83;109476;1253;59438;-76
2024/04/16 10:51:17;;;;;;;1.00;0.80;;;;;;;13.11;100.00;97689.75;109522;1253;60106;-75
2024/04/16 10:53:43;;;;;;;2.10;1.10;;;;;;;13.11;100.00;97689.23;109451;1253;64051;-75
2024/04/16 10:56:10;;;;;;;2.00;1.10;;;;;;;13.03;100.00;97687.15;109435;1253;59168;-78
2024/04/16 10:58:37;;;;;;;2.20;1.00;;;;;;;12.96;100.00;97687.27;109457;1253;58889;-76
2024/04/16 11:01:04;;;;;;;1.70;0.80;;;;;;;12.95;100.00;97690.23;109153;1253;64705;-76
2024/04/16 11:03:34;;;;;;;1.30;0.80;;;;;;;13.02;100.00;97689.74;109423;1253;60155;-75
2024/04/16 11:06:01;;;;;;;2.60;1.00;;;;;;;13.11;100.00;97687.29;109136;1253;64161;-74
2024/04/16 11:08:27;;;;;;;3.10;1.00;;;;;;;13.10;100.00;97685.59;109397;1253;58932;-75
2024/04/16 11:10:54;;;;;;;2.70;1.10;;;;;;;13.07;100.00;97688.90;109454;1253;59367;-75
2024/04/16 11:13:21;;;;;;;4.80;1.10;;;;;;;13.06;100.00;97681.74;109465;1253;74613;-76
2024/04/16 11:15:48;;;;;;;2.20;0.80;;;;;;;13.13;100.00;97682.83;109227;1253;59831;-75
2024/04/16 11:18:14;;;;;;;2.60;0.70;;;;;;;13.16;90.98;97686.23;109320;1253;154826;-75
2024/04/16 11:20:41;;;;;;;1.60;0.70;;;;;;;13.14;87.25;97691.21;109425;1253;59242;-75